createdAt,value
2023-01-25T00:01:33.758Z,101774.38
2023-01-25T00:06:35.563Z,101780.16
2023-01-25T00:11:37.803Z,101778.16
2023-01-25T00:16:40.289Z,101781.66
2023-01-25T00:21:42.209Z,101773.88
2023-01-25T00:26:44.189Z,101771.69
2023-01-25T00:32:02.049Z,101772.78
2023-01-25T00:37:14.395Z,101769.44
2023-01-25T00:42:17.787Z,101769.31
2023-01-25T00:47:19.833Z,101775.34
2023-01-25T00:52:23.100Z,101766.72
2023-01-25T00:57:24.955Z,101772.75
2023-01-25T01:02:26.734Z,101763.88
2023-01-25T01:07:29.107Z,101758.88
2023-01-25T01:12:30.780Z,101755.72
2023-01-25T01:17:32.409Z,101758.34
2023-01-25T01:22:34.052Z,101747.88
2023-01-25T01:27:35.790Z,101749.47
2023-01-25T01:32:37.694Z,101734.13
2023-01-25T01:37:42.916Z,101727.56
2023-01-25T01:43:02.116Z,101718.50
2023-01-25T01:48:05.576Z,101712.28
2023-01-25T01:53:07.872Z,101705.25
2023-01-25T01:58:10.450Z,101699.72
2023-01-25T02:03:14.195Z,101699.13
2023-01-25T02:08:15.927Z,101689.69
2023-01-25T02:13:19.113Z,101685.88
2023-01-25T02:18:20.749Z,101681.50
2023-01-25T02:24:04.363Z,101677.84
2023-01-25T02:29:07.987Z,101661.19
2023-01-25T02:34:09.602Z,101666.72
2023-01-25T02:39:20.069Z,101658.41
2023-01-25T02:44:26.696Z,101655.19
2023-01-25T02:49:28.396Z,101648.59
2023-01-25T02:54:30.177Z,101642.97
2023-01-25T02:59:31.990Z,101640.94
2023-01-25T03:04:34.908Z,101626.09
2023-01-25T03:09:37.353Z,101629.81
2023-01-25T03:14:39.072Z,101638.94
2023-01-25T03:19:41.062Z,101636.09
2023-01-25T03:24:42.870Z,101634.25
2023-01-25T03:29:46.107Z,101633.41
2023-01-25T03:34:52.520Z,101626.50
2023-01-25T03:39:55.084Z,101623.22
2023-01-25T03:44:58.659Z,101623.50
2023-01-25T03:50:00.783Z,101629.31
2023-01-25T03:55:02.574Z,101619.72
2023-01-25T04:00:05.083Z,101620.34
2023-01-25T04:05:16.925Z,101613.63
2023-01-25T04:10:19.074Z,101612.03
2023-01-25T04:15:22.786Z,101604.78
2023-01-25T04:20:24.739Z,101611.16
2023-01-25T04:25:27.527Z,101601.13
2023-01-25T04:30:29.259Z,101604.75
2023-01-25T04:35:32.907Z,101606.03
2023-01-25T04:40:37.129Z,101601.31
2023-01-25T04:45:38.871Z,101608.97
2023-01-25T04:50:46.848Z,101609.59
2023-01-25T04:55:49.678Z,101609.81
2023-01-25T05:00:51.797Z,101601.34
2023-01-25T05:05:53.975Z,101609.59
2023-01-25T05:10:58.949Z,101598.03
2023-01-25T05:16:19.958Z,101599.78
2023-01-25T05:21:42.975Z,101602.13
2023-01-25T05:27:01.657Z,101594.38
2023-01-25T05:32:23.200Z,101593.69
2023-01-25T05:37:24.938Z,101578.28
2023-01-25T05:42:33.451Z,101574.25
2023-01-25T05:47:36.211Z,101582.09
2023-01-25T05:52:37.989Z,101575.34
2023-01-25T05:57:39.753Z,101561.63
2023-01-25T06:02:41.665Z,101559.28
2023-01-25T06:07:48.025Z,101572.19
2023-01-25T06:12:56.968Z,101561.81
2023-01-25T06:17:58.688Z,101566.31
2023-01-25T06:23:13.824Z,101563.75
2023-01-25T06:28:15.508Z,101571.06
2023-01-25T06:33:17.131Z,101565.53
2023-01-25T06:38:18.817Z,101565.81
2023-01-25T06:43:20.411Z,101565.47
2023-01-25T06:48:21.997Z,101554.75
2023-01-25T06:53:25.320Z,101554.28
2023-01-25T06:58:27.943Z,101551.81
2023-01-25T07:03:30.699Z,101556.69
2023-01-25T07:08:33.882Z,101548.03
2023-01-25T07:13:35.591Z,101541.22
2023-01-25T07:18:37.639Z,101531.41
2023-01-25T07:23:39.702Z,101524.69
2023-01-25T07:28:41.318Z,101520.59
2023-01-25T07:33:43.202Z,101514.63
2023-01-25T07:38:44.817Z,101511.50
2023-01-25T07:43:46.433Z,101506.31
2023-01-25T07:48:54.721Z,101503.59
2023-01-25T07:54:02.246Z,101498.78
2023-01-25T07:59:04.304Z,101493.75
2023-01-25T08:04:07.084Z,101491.31
2023-01-25T08:09:12.811Z,101479.97
2023-01-25T08:14:14.484Z,101477.91
2023-01-25T08:19:16.129Z,101471.25
2023-01-25T08:24:20.102Z,101475.66
2023-01-25T08:29:22.382Z,101472.34
2023-01-25T08:34:24.137Z,101470.16
2023-01-25T08:39:25.944Z,101478.63
2023-01-25T08:44:27.541Z,101482.00
2023-01-25T08:49:31.126Z,101478.97
2023-01-25T08:54:32.779Z,101471.53
2023-01-25T08:59:34.436Z,101467.16
2023-01-25T09:04:36.077Z,101467.38
2023-01-25T09:09:37.716Z,101471.25
2023-01-25T09:14:40.371Z,101456.69
2023-01-25T09:19:42.575Z,101457.50
2023-01-25T09:24:45.051Z,101457.59
2023-01-25T09:30:00.921Z,101449.81
2023-01-25T09:35:04.733Z,101442.69
2023-01-25T09:40:19.611Z,101444.84
2023-01-25T09:45:32.232Z,101441.63
2023-01-25T09:50:48.179Z,101441.19
2023-01-25T09:55:56.139Z,101440.88
2023-01-25T10:01:38.130Z,101443.34
2023-01-25T10:06:48.779Z,101442.03
2023-01-25T10:12:03.970Z,101438.34
2023-01-25T10:17:19.201Z,101434.97
2023-01-25T10:22:25.375Z,101435.94
2023-01-25T10:27:59.214Z,101425.69
2023-01-25T10:33:07.597Z,101415.84
2023-01-25T10:38:21.590Z,101408.75
2023-01-25T10:43:23.783Z,101401.25
2023-01-25T10:48:36.592Z,101395.34
2023-01-25T10:53:44.274Z,101378.09
2023-01-25T10:58:49.314Z,101365.31
2023-01-25T11:03:51.369Z,101363.56
2023-01-25T11:08:53.016Z,101346.38
2023-01-25T11:13:55.398Z,101342.59
2023-01-25T11:18:59.017Z,101345.72
2023-01-25T11:24:06.729Z,101335.94
2023-01-25T11:29:12.316Z,101324.47
2023-01-25T11:34:17.027Z,101319.06
2023-01-25T11:39:53.663Z,101309.91
2023-01-25T11:45:13.668Z,101301.56
2023-01-25T11:50:19.610Z,101287.94
2023-01-25T11:55:29.299Z,101282.72
2023-01-25T12:00:54.911Z,101272.44
2023-01-25T12:06:12.892Z,101260.44
2023-01-25T12:11:44.103Z,101244.91
2023-01-25T12:17:06.267Z,101223.94
2023-01-25T12:22:24.114Z,101220.13
2023-01-25T12:27:54.695Z,101201.09
2023-01-25T12:33:13.399Z,101204.94
2023-01-25T12:38:24.367Z,101189.84
2023-01-25T12:43:38.811Z,101181.81
2023-01-25T12:48:47.590Z,101184.56
2023-01-25T12:53:52.538Z,101164.88
2023-01-25T12:59:00.099Z,101155.28
2023-01-25T13:04:40.123Z,101158.78
2023-01-25T13:09:50.045Z,101153.47
2023-01-25T13:14:51.997Z,101138.66
2023-01-25T13:19:54.468Z,101122.00
2023-01-25T13:25:02.137Z,101125.97
2023-01-25T13:30:22.206Z,101119.47
2023-01-25T13:35:35.075Z,101113.81
2023-01-25T13:40:39.888Z,101114.16
2023-01-25T13:45:42.348Z,101096.38
2023-01-25T13:50:51.179Z,101091.84
2023-01-25T13:55:55.652Z,101086.22
2023-01-25T14:01:08.306Z,101077.94
2023-01-25T14:06:32.171Z,101087.94
2023-01-25T14:11:35.907Z,101072.94
2023-01-25T14:16:37.574Z,101063.03
2023-01-25T14:21:39.739Z,101046.50
2023-01-25T14:26:42.087Z,101050.97
2023-01-25T14:31:43.808Z,101050.97
2023-01-25T14:36:46.839Z,101045.25
2023-01-25T14:42:01.149Z,101042.69
2023-01-25T14:47:22.938Z,101028.56
2023-01-25T14:52:27.764Z,101031.22
2023-01-25T14:57:32.493Z,101017.38
2023-01-25T15:03:00.580Z,101015.22
2023-01-25T15:08:08.250Z,101013.28
2023-01-25T15:13:14.468Z,101005.56
2023-01-25T15:18:41.039Z,100989.22
2023-01-25T15:23:44.448Z,100971.56
2023-01-25T15:28:46.423Z,100970.69
2023-01-25T15:33:48.095Z,100977.81
2023-01-25T15:38:49.762Z,100958.56
2023-01-25T15:43:52.128Z,100961.66
2023-01-25T15:48:54.277Z,100949.72
2023-01-25T15:53:55.868Z,100951.63
2023-01-25T15:59:00.413Z,100939.50
2023-01-25T16:04:02.089Z,100931.75
2023-01-25T16:09:14.216Z,100927.66
2023-01-25T16:14:15.865Z,100925.28
2023-01-25T16:19:20.133Z,100920.25
2023-01-25T16:24:21.854Z,100912.44
2023-01-25T16:29:24.109Z,100908.13
2023-01-25T16:34:25.717Z,100902.44
2023-01-25T16:39:28.357Z,100894.09
2023-01-25T16:44:30.067Z,100886.00
2023-01-25T16:49:33.499Z,100872.19
2023-01-25T16:54:35.099Z,100877.06
2023-01-25T16:59:36.708Z,100872.34
2023-01-25T17:04:38.329Z,100865.59
2023-01-25T17:09:40.097Z,100863.72
2023-01-25T17:14:41.722Z,100858.28
2023-01-25T17:19:43.305Z,100849.81
2023-01-25T17:24:44.904Z,100843.50
2023-01-25T17:29:46.607Z,100838.28
2023-01-25T17:34:48.349Z,100829.16
2023-01-25T17:39:49.958Z,100829.44
2023-01-25T17:44:51.546Z,100823.66
2023-01-25T17:49:53.218Z,100813.06
2023-01-25T17:54:54.813Z,100820.50
2023-01-25T17:59:56.441Z,100807.66
2023-01-25T18:04:58.080Z,100798.97
2023-01-25T18:09:59.785Z,100797.22
2023-01-25T18:15:01.438Z,100793.44
2023-01-25T18:20:05.479Z,100796.63
2023-01-25T18:25:27.094Z,100788.56
2023-01-25T18:30:51.771Z,100780.06
2023-01-25T18:35:54.096Z,100775.53
2023-01-25T18:40:56.207Z,100790.25
2023-01-25T18:45:59.529Z,100783.13
2023-01-25T18:51:12.951Z,100782.94
2023-01-25T18:56:17.164Z,100781.13
2023-01-25T19:01:20.829Z,100763.09
2023-01-25T19:06:24.262Z,100754.38
2023-01-25T19:11:26.667Z,100741.09
2023-01-25T19:16:28.444Z,100733.88
2023-01-25T19:21:30.278Z,100729.34
2023-01-25T19:26:31.893Z,100720.41
2023-01-25T19:31:34.438Z,100708.75
2023-01-25T19:36:37.956Z,100704.75
2023-01-25T19:41:39.567Z,100691.81
2023-01-25T19:46:41.403Z,100693.13
2023-01-25T19:51:47.897Z,100696.06
2023-01-25T19:56:50.303Z,100690.50
2023-01-25T20:01:52.312Z,100690.97
2023-01-25T20:06:54.052Z,100688.91
2023-01-25T20:11:56.989Z,100682.84
2023-01-25T20:16:58.622Z,100683.97
2023-01-25T20:22:00.557Z,100674.69
2023-01-25T20:27:04.250Z,100674.88
2023-01-25T20:32:06.268Z,100673.16
2023-01-25T20:37:07.948Z,100659.22
2023-01-25T20:42:09.572Z,100660.56
2023-01-25T20:47:11.151Z,100654.16
2023-01-25T20:52:13.853Z,100645.50
2023-01-25T20:57:15.496Z,100628.28
2023-01-25T21:02:17.120Z,100625.25
2023-01-25T21:07:18.746Z,100620.94
2023-01-25T21:12:20.360Z,100608.88
2023-01-25T21:17:21.960Z,100612.59
2023-01-25T21:22:24.071Z,100596.22
2023-01-25T21:27:29.564Z,100609.34
2023-01-25T21:32:31.198Z,100595.38
2023-01-25T21:37:32.871Z,100594.31
2023-01-25T21:42:34.484Z,100591.00
2023-01-25T21:47:36.585Z,100587.13
2023-01-25T21:52:38.222Z,100577.38
2023-01-25T21:57:47.102Z,100570.47
2023-01-25T22:02:51.701Z,100570.81
2023-01-25T22:07:53.343Z,100579.25
2023-01-25T22:12:54.994Z,100581.34
2023-01-25T22:17:56.651Z,100574.13
2023-01-25T22:22:58.246Z,100583.97
2023-01-25T22:28:00.224Z,100565.16
2023-01-25T22:33:01.825Z,100551.31
2023-01-25T22:38:03.423Z,100558.81
2023-01-25T22:43:05.024Z,100541.50
2023-01-25T22:48:06.865Z,100546.50
2023-01-25T22:53:08.472Z,100552.72
2023-01-25T22:58:10.418Z,100546.47
2023-01-25T23:03:12.053Z,100538.81
2023-01-25T23:08:13.710Z,100526.84
2023-01-25T23:13:15.403Z,100525.47
2023-01-25T23:18:35.683Z,100519.16
2023-01-25T23:23:37.343Z,100515.00
2023-01-25T23:28:39.136Z,100498.38
2023-01-25T23:33:40.774Z,100495.41
2023-01-25T23:38:43.515Z,100485.44
2023-01-25T23:43:45.814Z,100480.03
2023-01-25T23:48:47.782Z,100465.75
2023-01-25T23:53:49.424Z,100462.50
2023-01-25T23:58:51.025Z,100472.31
